sensor_id;sensor_type;location;lat;lon;timestamp;temperature;humidity
45843;DHT22;31563;51.744;8.252;2023-04-25T00:00:25;18.90;45.70
45843;DHT22;31563;51.744;8.252;2023-04-25T00:02:54;18.90;45.70
45843;DHT22;31563;51.744;8.252;2023-04-25T00:05:24;18.90;45.70
45843;DHT22;31563;51.744;8.252;2023-04-25T00:07:52;18.90;45.60
45843;DHT22;31563;51.744;8.252;2023-04-25T00:10:21;18.90;45.60
45843;DHT22;31563;51.744;8.252;2023-04-25T00:12:50;18.90;45.60
45843;DHT22;31563;51.744;8.252;2023-04-25T00:15:19;18.90;45.60
45843;DHT22;31563;51.744;8.252;2023-04-25T00:17:47;18.90;45.40
45843;DHT22;31563;51.744;8.252;2023-04-25T00:20:15;18.90;45.50
45843;DHT22;31563;51.744;8.252;2023-04-25T00:22:43;18.90;45.50
45843;DHT22;31563;51.744;8.252;2023-04-25T00:25:12;18.80;45.20
45843;DHT22;31563;51.744;8.252;2023-04-25T00:27:40;18.90;45.40
45843;DHT22;31563;51.744;8.252;2023-04-25T00:30:11;18.90;45.40
45843;DHT22;31563;51.744;8.252;2023-04-25T00:32:39;18.90;45.50
45843;DHT22;31563;51.744;8.252;2023-04-25T00:35:08;18.90;45.30
45843;DHT22;31563;51.744;8.252;2023-04-25T00:37:37;18.80;45.30
45843;DHT22;31563;51.744;8.252;2023-04-25T00:40:06;18.80;45.30
45843;DHT22;31563;51.744;8.252;2023-04-25T00:42:35;18.80;45.20
45843;DHT22;31563;51.744;8.252;2023-04-25T00:45:06;18.80;45.20
45843;DHT22;31563;51.744;8.252;2023-04-25T00:47:37;18.80;45.20
45843;DHT22;31563;51.744;8.252;2023-04-25T00:50:07;18.80;45.10
45843;DHT22;31563;51.744;8.252;2023-04-25T00:52:35;18.70;45.10
45843;DHT22;31563;51.744;8.252;2023-04-25T00:55:04;18.80;45.20
45843;DHT22;31563;51.744;8.252;2023-04-25T00:57:33;18.80;45.20
45843;DHT22;31563;51.744;8.252;2023-04-25T01:00:03;18.70;45.00
45843;DHT22;31563;51.744;8.252;2023-04-25T01:02:33;18.70;45.10
45843;DHT22;31563;51.744;8.252;2023-04-25T01:05:04;18.70;45.10
45843;DHT22;31563;51.744;8.252;2023-04-25T01:07:32;18.70;45.10
45843;DHT22;31563;51.744;8.252;2023-04-25T01:10:02;18.70;45.10
45843;DHT22;31563;51.744;8.252;2023-04-25T01:12:30;18.70;45.70
45843;DHT22;31563;51.744;8.252;2023-04-25T01:14:58;18.70;45.10
45843;DHT22;31563;51.744;8.252;2023-04-25T01:17:27;18.70;45.10
45843;DHT22;31563;51.744;8.252;2023-04-25T01:19:56;18.70;45.00
45843;DHT22;31563;51.744;8.252;2023-04-25T01:22:25;18.70;45.00
45843;DHT22;31563;51.744;8.252;2023-04-25T01:24:53;18.60;44.90
45843;DHT22;31563;51.744;8.252;2023-04-25T01:27:22;18.60;44.90
45843;DHT22;31563;51.744;8.252;2023-04-25T01:29:50;18.60;44.90
45843;DHT22;31563;51.744;8.252;2023-04-25T01:32:19;18.60;44.90
45843;DHT22;31563;51.744;8.252;2023-04-25T01:34:48;18.60;44.90
45843;DHT22;31563;51.744;8.252;2023-04-25T01:37:17;18.60;44.80
45843;DHT22;31563;51.744;8.252;2023-04-25T01:39:46;18.60;45.00
45843;DHT22;31563;51.744;8.252;2023-04-25T01:42:15;18.70;61.60
45843;DHT22;31563;51.744;8.252;2023-04-25T01:44:43;18.70;55.60
45843;DHT22;31563;51.744;8.252;2023-04-25T01:47:11;18.50;45.30
45843;DHT22;31563;51.744;8.252;2023-04-25T01:49:39;18.50;44.70
45843;DHT22;31563;51.744;8.252;2023-04-25T01:52:07;18.50;44.80
45843;DHT22;31563;51.744;8.252;2023-04-25T01:54:36;18.50;45.00
45843;DHT22;31563;51.744;8.252;2023-04-25T01:57:05;18.50;44.90
45843;DHT22;31563;51.744;8.252;2023-04-25T01:59:33;18.50;44.90
45843;DHT22;31563;51.744;8.252;2023-04-25T02:02:01;18.50;44.90
45843;DHT22;31563;51.744;8.252;2023-04-25T02:04:30;18.50;45.20
45843;DHT22;31563;51.744;8.252;2023-04-25T02:06:59;18.50;44.80
45843;DHT22;31563;51.744;8.252;2023-04-25T02:09:27;18.50;44.90
45843;DHT22;31563;51.744;8.252;2023-04-25T02:11:55;18.50;44.80
45843;DHT22;31563;51.744;8.252;2023-04-25T02:14:25;18.50;44.70
45843;DHT22;31563;51.744;8.252;2023-04-25T02:16:53;18.50;44.80
45843;DHT22;31563;51.744;8.252;2023-04-25T02:19:21;18.40;44.80
45843;DHT22;31563;51.744;8.252;2023-04-25T02:21:50;18.40;44.70
45843;DHT22;31563;51.744;8.252;2023-04-25T02:24:18;18.40;44.80
45843;DHT22;31563;51.744;8.252;2023-04-25T02:26:46;18.40;44.80
45843;DHT22;31563;51.744;8.252;2023-04-25T02:29:16;18.40;44.80
45843;DHT22;31563;51.744;8.252;2023-04-25T02:31:45;18.40;44.80
45843;DHT22;31563;51.744;8.252;2023-04-25T02:34:14;18.40;44.80
45843;DHT22;31563;51.744;8.252;2023-04-25T02:36:42;18.30;44.70
45843;DHT22;31563;51.744;8.252;2023-04-25T02:39:10;18.30;44.70
45843;DHT22;31563;51.744;8.252;2023-04-25T02:41:38;18.30;44.70
45843;DHT22;31563;51.744;8.252;2023-04-25T02:44:06;18.30;44.70
45843;DHT22;31563;51.744;8.252;2023-04-25T02:46:34;18.30;44.70
45843;DHT22;31563;51.744;8.252;2023-04-25T02:49:07;18.30;44.70
45843;DHT22;31563;51.744;8.252;2023-04-25T02:51:35;18.30;44.70
45843;DHT22;31563;51.744;8.252;2023-04-25T02:54:03;18.30;44.70
45843;DHT22;31563;51.744;8.252;2023-04-25T02:56:33;18.30;44.70
45843;DHT22;31563;51.744;8.252;2023-04-25T02:59:01;18.30;44.60
45843;DHT22;31563;51.744;8.252;2023-04-25T03:01:29;18.20;44.60
45843;DHT22;31563;51.744;8.252;2023-04-25T03:03:57;18.30;44.80
45843;DHT22;31563;51.744;8.252;2023-04-25T03:06:27;18.30;44.80
45843;DHT22;31563;51.744;8.252;2023-04-25T03:08:55;18.20;44.70
45843;DHT22;31563;51.744;8.252;2023-04-25T03:11:25;18.30;44.70
45843;DHT22;31563;51.744;8.252;2023-04-25T03:13:53;18.20;44.70
45843;DHT22;31563;51.744;8.252;2023-04-25T03:16:21;18.20;45.30
45843;DHT22;31563;51.744;8.252;2023-04-25T03:18:50;18.20;44.60
45843;DHT22;31563;51.744;8.252;2023-04-25T03:21:18;18.20;44.60
45843;DHT22;31563;51.744;8.252;2023-04-25T03:23:47;18.20;44.60
45843;DHT22;31563;51.744;8.252;2023-04-25T03:26:16;18.20;44.70
45843;DHT22;31563;51.744;8.252;2023-04-25T03:28:44;18.20;44.70
45843;DHT22;31563;51.744;8.252;2023-04-25T03:31:12;18.20;44.60
45843;DHT22;31563;51.744;8.252;2023-04-25T03:33:40;18.20;44.60
45843;DHT22;31563;51.744;8.252;2023-04-25T03:36:08;18.10;44.50
45843;DHT22;31563;51.744;8.252;2023-04-25T03:38:37;18.10;44.70
45843;DHT22;31563;51.744;8.252;2023-04-25T03:41:07;18.20;44.70
45843;DHT22;31563;51.744;8.252;2023-04-25T03:43:35;18.20;44.70
45843;DHT22;31563;51.744;8.252;2023-04-25T03:46:03;18.10;44.60
45843;DHT22;31563;51.744;8.252;2023-04-25T03:48:32;18.10;44.60
45843;DHT22;31563;51.744;8.252;2023-04-25T03:51:01;18.10;44.60
45843;DHT22;31563;51.744;8.252;2023-04-25T03:53:29;18.10;44.60
45843;DHT22;31563;51.744;8.252;2023-04-25T03:55:57;18.10;44.60
45843;DHT22;31563;51.744;8.252;2023-04-25T03:58:27;18.10;44.50
45843;DHT22;31563;51.744;8.252;2023-04-25T04:00:55;18.10;44.60
45843;DHT22;31563;51.744;8.252;2023-04-25T04:03:23;18.10;44.60
45843;DHT22;31563;51.744;8.252;2023-04-25T04:05:52;18.00;44.60
45843;DHT22;31563;51.744;8.252;2023-04-25T04:08:20;18.00;44.60
45843;DHT22;31563;51.744;8.252;2023-04-25T04:10:48;18.00;44.60
45843;DHT22;31563;51.744;8.252;2023-04-25T04:13:16;18.00;44.60
45843;DHT22;31563;51.744;8.252;2023-04-25T04:15:46;18.00;44.60
45843;DHT22;31563;51.744;8.252;2023-04-25T04:18:14;18.00;44.60
45843;DHT22;31563;51.744;8.252;2023-04-25T04:20:42;18.00;44.60
45843;DHT22;31563;51.744;8.252;2023-04-25T04:23:11;18.00;44.60
45843;DHT22;31563;51.744;8.252;2023-04-25T04:25:40;18.00;44.50
45843;DHT22;31563;51.744;8.252;2023-04-25T04:28:08;18.00;44.50
45843;DHT22;31563;51.744;8.252;2023-04-25T04:30:37;18.00;44.60
45843;DHT22;31563;51.744;8.252;2023-04-25T04:33:07;18.00;44.60
45843;DHT22;31563;51.744;8.252;2023-04-25T04:35:35;18.00;44.60
45843;DHT22;31563;51.744;8.252;2023-04-25T04:38:03;17.90;44.40
45843;DHT22;31563;51.744;8.252;2023-04-25T04:40:32;18.00;44.50
45843;DHT22;31563;51.744;8.252;2023-04-25T04:43:00;18.00;44.50
45843;DHT22;31563;51.744;8.252;2023-04-25T04:45:28;17.90;44.50
45843;DHT22;31563;51.744;8.252;2023-04-25T04:47:56;18.00;44.60
45843;DHT22;31563;51.744;8.252;2023-04-25T04:50:26;17.90;44.50
45843;DHT22;31563;51.744;8.252;2023-04-25T04:52:55;17.90;44.50
45843;DHT22;31563;51.744;8.252;2023-04-25T04:55:23;18.00;44.60
45843;DHT22;31563;51.744;8.252;2023-04-25T04:57:51;18.00;44.50
45843;DHT22;31563;51.744;8.252;2023-04-25T05:00:19;18.00;44.50
45843;DHT22;31563;51.744;8.252;2023-04-25T05:02:48;18.00;44.50
45843;DHT22;31563;51.744;8.252;2023-04-25T05:05:17;18.00;44.40
45843;DHT22;31563;51.744;8.252;2023-04-25T05:07:46;18.00;45.00
45843;DHT22;31563;51.744;8.252;2023-04-25T05:10:14;18.10;45.40
45843;DHT22;31563;51.744;8.252;2023-04-25T05:12:42;18.20;45.00
45843;DHT22;31563;51.744;8.252;2023-04-25T05:15:11;18.10;44.60
45843;DHT22;31563;51.744;8.252;2023-04-25T05:17:39;18.10;44.80
45843;DHT22;31563;51.744;8.252;2023-04-25T05:20:08;18.20;45.50
45843;DHT22;31563;51.744;8.252;2023-04-25T05:22:36;18.20;45.50
45843;DHT22;31563;51.744;8.252;2023-04-25T05:25:07;18.30;46.00
45843;DHT22;31563;51.744;8.252;2023-04-25T05:27:35;18.30;45.70
45843;DHT22;31563;51.744;8.252;2023-04-25T05:30:04;18.30;46.20
45843;DHT22;31563;51.744;8.252;2023-04-25T05:32:33;18.40;46.30
45843;DHT22;31563;51.744;8.252;2023-04-25T05:35:01;18.50;46.70
45843;DHT22;31563;51.744;8.252;2023-04-25T05:37:29;18.50;46.40
45843;DHT22;31563;51.744;8.252;2023-04-25T05:39:59;18.50;46.70
45843;DHT22;31563;51.744;8.252;2023-04-25T05:42:29;18.50;46.90
45843;DHT22;31563;51.744;8.252;2023-04-25T05:44:57;18.40;46.80
45843;DHT22;31563;51.744;8.252;2023-04-25T05:47:25;18.40;46.90
45843;DHT22;31563;51.744;8.252;2023-04-25T05:49:53;18.40;47.00
45843;DHT22;31563;51.744;8.252;2023-04-25T05:52:21;18.40;46.90
45843;DHT22;31563;51.744;8.252;2023-04-25T05:54:49;18.50;47.10
45843;DHT22;31563;51.744;8.252;2023-04-25T05:57:22;18.50;47.00
45843;DHT22;31563;51.744;8.252;2023-04-25T05:59:52;18.50;47.00
45843;DHT22;31563;51.744;8.252;2023-04-25T06:02:20;18.50;47.00
45843;DHT22;31563;51.744;8.252;2023-04-25T06:04:49;18.60;46.90
45843;DHT22;31563;51.744;8.252;2023-04-25T06:07:19;18.60;46.90
45843;DHT22;31563;51.744;8.252;2023-04-25T06:09:47;18.70;46.80
45843;DHT22;31563;51.744;8.252;2023-04-25T06:12:16;18.70;46.80
45843;DHT22;31563;51.744;8.252;2023-04-25T06:14:44;18.80;46.70
45843;DHT22;31563;51.744;8.252;2023-04-25T06:17:13;18.80;46.70
45843;DHT22;31563;51.744;8.252;2023-04-25T06:19:41;19.00;47.20
45843;DHT22;31563;51.744;8.252;2023-04-25T06:22:10;19.00;46.30
45843;DHT22;31563;51.744;8.252;2023-04-25T06:24:38;19.10;46.30
45843;DHT22;31563;51.744;8.252;2023-04-25T06:27:06;19.20;46.00
45843;DHT22;31563;51.744;8.252;2023-04-25T06:29:34;19.20;45.90
45843;DHT22;31563;51.744;8.252;2023-04-25T06:32:03;19.30;46.00
45843;DHT22;31563;51.744;8.252;2023-04-25T06:34:32;19.40;45.60
45843;DHT22;31563;51.744;8.252;2023-04-25T06:37:00;19.40;45.00
45843;DHT22;31563;51.744;8.252;2023-04-25T06:39:29;19.40;43.90
45843;DHT22;31563;51.744;8.252;2023-04-25T06:41:57;19.30;43.60
45843;DHT22;31563;51.744;8.252;2023-04-25T06:44:25;19.20;43.30
45843;DHT22;31563;51.744;8.252;2023-04-25T06:46:56;19.10;43.00
45843;DHT22;31563;51.744;8.252;2023-04-25T06:49:24;19.00;42.70
45843;DHT22;31563;51.744;8.252;2023-04-25T06:51:53;18.90;42.90
45843;DHT22;31563;51.744;8.252;2023-04-25T06:54:22;19.10;43.40
45843;DHT22;31563;51.744;8.252;2023-04-25T06:56:51;19.20;43.30
45843;DHT22;31563;51.744;8.252;2023-04-25T06:59:19;19.50;42.70
45843;DHT22;31563;51.744;8.252;2023-04-25T07:01:47;19.50;42.50
45843;DHT22;31563;51.744;8.252;2023-04-25T07:04:16;19.40;41.40
45843;DHT22;31563;51.744;8.252;2023-04-25T07:06:44;19.30;41.60
45843;DHT22;31563;51.744;8.252;2023-04-25T07:09:15;19.20;41.90
45843;DHT22;31563;51.744;8.252;2023-04-25T07:11:43;19.20;41.90
45843;DHT22;31563;51.744;8.252;2023-04-25T07:14:11;19.20;41.20
45843;DHT22;31563;51.744;8.252;2023-04-25T07:16:39;19.30;41.20
45843;DHT22;31563;51.744;8.252;2023-04-25T07:19:08;19.20;41.00
45843;DHT22;31563;51.744;8.252;2023-04-25T07:21:36;19.10;40.90
45843;DHT22;31563;51.744;8.252;2023-04-25T07:24:05;19.20;41.10
45843;DHT22;31563;51.744;8.252;2023-04-25T07:26:35;19.30;41.40
45843;DHT22;31563;51.744;8.252;2023-04-25T07:29:04;19.60;41.20
45843;DHT22;31563;51.744;8.252;2023-04-25T07:31:33;19.80;41.60
45843;DHT22;31563;51.744;8.252;2023-04-25T07:34:01;20.10;41.10
45843;DHT22;31563;51.744;8.252;2023-04-25T07:36:29;20.30;41.00
45843;DHT22;31563;51.744;8.252;2023-04-25T07:38:57;20.40;40.90
45843;DHT22;31563;51.744;8.252;2023-04-25T07:41:25;20.50;40.60
45843;DHT22;31563;51.744;8.252;2023-04-25T07:43:55;20.60;40.70
45843;DHT22;31563;51.744;8.252;2023-04-25T07:46:23;20.70;40.60
45843;DHT22;31563;51.744;8.252;2023-04-25T07:48:52;20.80;40.50
45843;DHT22;31563;51.744;8.252;2023-04-25T07:51:20;21.00;40.50
45843;DHT22;31563;51.744;8.252;2023-04-25T07:53:49;21.10;40.30
45843;DHT22;31563;51.744;8.252;2023-04-25T07:56:17;21.20;40.20
45843;DHT22;31563;51.744;8.252;2023-04-25T07:58:45;21.40;39.90
45843;DHT22;31563;51.744;8.252;2023-04-25T08:01:15;21.60;39.30
45843;DHT22;31563;51.744;8.252;2023-04-25T08:03:43;21.60;39.80
45843;DHT22;31563;51.744;8.252;2023-04-25T08:06:11;21.90;39.60
45843;DHT22;31563;51.744;8.252;2023-04-25T08:08:40;22.10;39.30
45843;DHT22;31563;51.744;8.252;2023-04-25T08:11:08;22.30;39.00
45843;DHT22;31563;51.744;8.252;2023-04-25T08:13:37;22.40;38.80
45843;DHT22;31563;51.744;8.252;2023-04-25T08:16:05;22.60;38.70
45843;DHT22;31563;51.744;8.252;2023-04-25T08:18:35;22.70;38.60
45843;DHT22;31563;51.744;8.252;2023-04-25T08:21:03;22.90;38.40
45843;DHT22;31563;51.744;8.252;2023-04-25T08:23:31;22.90;38.10
45843;DHT22;31563;51.744;8.252;2023-04-25T08:26:00;22.90;38.10
45843;DHT22;31563;51.744;8.252;2023-04-25T08:28:28;22.80;38.00
45843;DHT22;31563;51.744;8.252;2023-04-25T08:30:56;22.80;38.20
45843;DHT22;31563;51.744;8.252;2023-04-25T08:33:24;22.90;38.30
45843;DHT22;31563;51.744;8.252;2023-04-25T08:35:54;23.10;38.20
45843;DHT22;31563;51.744;8.252;2023-04-25T08:38:22;23.30;38.10
45843;DHT22;31563;51.744;8.252;2023-04-25T08:40:51;23.40;37.70
45843;DHT22;31563;51.744;8.252;2023-04-25T08:43:20;23.50;37.70
45843;DHT22;31563;51.744;8.252;2023-04-25T08:45:48;23.50;37.70
45843;DHT22;31563;51.744;8.252;2023-04-25T08:48:18;23.70;37.60
45843;DHT22;31563;51.744;8.252;2023-04-25T08:50:48;23.90;37.60
45843;DHT22;31563;51.744;8.252;2023-04-25T08:53:23;24.20;37.30
45843;DHT22;31563;51.744;8.252;2023-04-25T08:55:55;24.50;37.20
45843;DHT22;31563;51.744;8.252;2023-04-25T08:58:24;24.90;36.90
45843;DHT22;31563;51.744;8.252;2023-04-25T09:00:52;25.20;36.30
45843;DHT22;31563;51.744;8.252;2023-04-25T09:03:20;25.60;36.30
45843;DHT22;31563;51.744;8.252;2023-04-25T09:05:49;25.70;35.90
45843;DHT22;31563;51.744;8.252;2023-04-25T09:08:18;25.70;35.50
45843;DHT22;31563;51.744;8.252;2023-04-25T09:10:47;25.40;35.30
45843;DHT22;31563;51.744;8.252;2023-04-25T09:13:24;25.00;35.40
45843;DHT22;31563;51.744;8.252;2023-04-25T09:15:54;24.60;35.70
45843;DHT22;31563;51.744;8.252;2023-04-25T09:18:23;24.30;36.20
45843;DHT22;31563;51.744;8.252;2023-04-25T09:20:58;24.00;36.60
45843;DHT22;31563;51.744;8.252;2023-04-25T09:23:39;23.70;37.10
45843;DHT22;31563;51.744;8.252;2023-04-25T09:26:09;23.40;37.90
45843;DHT22;31563;51.744;8.252;2023-04-25T09:28:37;23.30;38.30
45843;DHT22;31563;51.744;8.252;2023-04-25T09:31:05;23.20;38.50
45843;DHT22;31563;51.744;8.252;2023-04-25T09:33:34;23.20;38.80
45843;DHT22;31563;51.744;8.252;2023-04-25T09:36:04;23.30;38.90
45843;DHT22;31563;51.744;8.252;2023-04-25T09:38:40;23.70;39.20
45843;DHT22;31563;51.744;8.252;2023-04-25T09:41:10;23.90;36.00
45843;DHT22;31563;51.744;8.252;2023-04-25T09:43:39;23.40;33.00
45843;DHT22;31563;51.744;8.252;2023-04-25T09:46:08;22.80;32.20
45843;DHT22;31563;51.744;8.252;2023-04-25T09:48:38;22.40;32.70
45843;DHT22;31563;51.744;8.252;2023-04-25T09:51:08;22.10;32.60
45843;DHT22;31563;51.744;8.252;2023-04-25T09:53:39;21.90;32.60
45843;DHT22;31563;51.744;8.252;2023-04-25T09:56:09;21.90;33.00
45843;DHT22;31563;51.744;8.252;2023-04-25T09:58:40;22.40;35.70
45843;DHT22;31563;51.744;8.252;2023-04-25T10:01:10;22.70;34.60
45843;DHT22;31563;51.744;8.252;2023-04-25T10:03:39;22.80;34.00
45843;DHT22;31563;51.744;8.252;2023-04-25T10:06:11;22.90;34.30
45843;DHT22;31563;51.744;8.252;2023-04-25T10:08:41;22.90;34.40
45843;DHT22;31563;51.744;8.252;2023-04-25T10:11:11;23.00;34.70
45843;DHT22;31563;51.744;8.252;2023-04-25T10:13:41;23.00;34.90
45843;DHT22;31563;51.744;8.252;2023-04-25T10:16:10;23.60;36.30
45843;DHT22;31563;51.744;8.252;2023-04-25T10:18:39;25.20;35.50
45843;DHT22;31563;51.744;8.252;2023-04-25T10:21:07;26.80;34.90
45843;DHT22;31563;51.744;8.252;2023-04-25T10:23:36;27.60;33.00
45843;DHT22;31563;51.744;8.252;2023-04-25T10:26:05;27.50;32.40
45843;DHT22;31563;51.744;8.252;2023-04-25T10:28:57;27.00;32.50
45843;DHT22;31563;51.744;8.252;2023-04-25T10:31:25;26.50;32.90
45843;DHT22;31563;51.744;8.252;2023-04-25T10:33:54;26.10;33.20
45843;DHT22;31563;51.744;8.252;2023-04-25T10:36:23;25.60;33.70
45843;DHT22;31563;51.744;8.252;2023-04-25T10:38:54;25.20;34.00
45843;DHT22;31563;51.744;8.252;2023-04-25T10:41:22;24.90;34.60
45843;DHT22;31563;51.744;8.252;2023-04-25T10:44:00;24.60;35.00
45843;DHT22;31563;51.744;8.252;2023-04-25T10:46:29;24.40;35.60
45843;DHT22;31563;51.744;8.252;2023-04-25T10:48:59;24.20;36.00
45843;DHT22;31563;51.744;8.252;2023-04-25T10:51:28;24.20;36.50
45843;DHT22;31563;51.744;8.252;2023-04-25T10:54:17;24.60;36.90
45843;DHT22;31563;51.744;8.252;2023-04-25T10:56:48;25.10;37.80
45843;DHT22;31563;51.744;8.252;2023-04-25T10:59:19;26.20;37.60
45843;DHT22;31563;51.744;8.252;2023-04-25T11:01:51;27.40;35.30
45843;DHT22;31563;51.744;8.252;2023-04-25T11:04:22;27.30;34.30
45843;DHT22;31563;51.744;8.252;2023-04-25T11:07:00;27.00;34.40
45843;DHT22;31563;51.744;8.252;2023-04-25T11:09:50;26.80;34.60
45843;DHT22;31563;51.744;8.252;2023-04-25T11:12:19;27.00;35.70
45843;DHT22;31563;51.744;8.252;2023-04-25T11:14:48;27.70;35.30
45843;DHT22;31563;51.744;8.252;2023-04-25T11:17:16;28.60;34.40
45843;DHT22;31563;51.744;8.252;2023-04-25T11:19:48;28.90;33.70
45843;DHT22;31563;51.744;8.252;2023-04-25T11:22:16;29.00;33.30
45843;DHT22;31563;51.744;8.252;2023-04-25T11:24:45;29.10;33.20
45843;DHT22;31563;51.744;8.252;2023-04-25T11:27:13;28.80;33.10
45843;DHT22;31563;51.744;8.252;2023-04-25T11:29:42;28.50;33.10
45843;DHT22;31563;51.744;8.252;2023-04-25T11:32:11;28.00;33.40
45843;DHT22;31563;51.744;8.252;2023-04-25T11:34:42;27.60;33.80
45843;DHT22;31563;51.744;8.252;2023-04-25T11:37:10;27.30;34.20
45843;DHT22;31563;51.744;8.252;2023-04-25T11:39:43;27.20;35.10
45843;DHT22;31563;51.744;8.252;2023-04-25T11:42:13;28.20;36.30
45843;DHT22;31563;51.744;8.252;2023-04-25T11:44:41;29.20;34.60
45843;DHT22;31563;51.744;8.252;2023-04-25T11:47:10;29.50;33.30
45843;DHT22;31563;51.744;8.252;2023-04-25T11:49:38;29.00;33.20
45843;DHT22;31563;51.744;8.252;2023-04-25T11:52:07;28.50;33.50
45843;DHT22;31563;51.744;8.252;2023-04-25T11:54:36;28.10;34.10
45843;DHT22;31563;51.744;8.252;2023-04-25T11:57:04;27.70;34.50
45843;DHT22;31563;51.744;8.252;2023-04-25T11:59:33;27.40;35.00
45843;DHT22;31563;51.744;8.252;2023-04-25T12:02:01;27.10;35.30
45843;DHT22;31563;51.744;8.252;2023-04-25T12:04:31;26.90;35.60
45843;DHT22;31563;51.744;8.252;2023-04-25T12:07:01;26.50;33.30
45843;DHT22;31563;51.744;8.252;2023-04-25T12:09:30;26.20;33.90
45843;DHT22;31563;51.744;8.252;2023-04-25T12:11:59;26.00;34.90
45843;DHT22;31563;51.744;8.252;2023-04-25T12:14:31;25.80;35.50
45843;DHT22;31563;51.744;8.252;2023-04-25T12:17:02;25.70;35.80
45843;DHT22;31563;51.744;8.252;2023-04-25T12:19:36;25.60;36.30
45843;DHT22;31563;51.744;8.252;2023-04-25T12:22:19;25.60;36.60
45843;DHT22;31563;51.744;8.252;2023-04-25T12:24:47;25.80;37.00
45843;DHT22;31563;51.744;8.252;2023-04-25T12:27:16;25.90;37.00
45843;DHT22;31563;51.744;8.252;2023-04-25T12:29:51;26.10;37.00
45843;DHT22;31563;51.744;8.252;2023-04-25T12:32:19;26.40;37.10
45843;DHT22;31563;51.744;8.252;2023-04-25T12:34:49;26.70;36.90
45843;DHT22;31563;51.744;8.252;2023-04-25T12:37:17;27.00;36.40
45843;DHT22;31563;51.744;8.252;2023-04-25T12:39:45;27.10;36.00
45843;DHT22;31563;51.744;8.252;2023-04-25T12:42:13;27.00;36.00
45843;DHT22;31563;51.744;8.252;2023-04-25T12:44:42;26.90;36.40
45843;DHT22;31563;51.744;8.252;2023-04-25T12:47:10;26.80;36.50
45843;DHT22;31563;51.744;8.252;2023-04-25T12:49:38;26.70;36.70
45843;DHT22;31563;51.744;8.252;2023-04-25T12:52:08;26.90;36.90
45843;DHT22;31563;51.744;8.252;2023-04-25T12:54:36;28.00;37.10
45843;DHT22;31563;51.744;8.252;2023-04-25T12:57:05;28.90;36.10
45843;DHT22;31563;51.744;8.252;2023-04-25T12:59:33;29.90;35.10
45843;DHT22;31563;51.744;8.252;2023-04-25T13:02:01;30.60;33.80
45843;DHT22;31563;51.744;8.252;2023-04-25T13:04:30;30.70;29.00
45843;DHT22;31563;51.744;8.252;2023-04-25T13:06:58;30.20;28.20
45843;DHT22;31563;51.744;8.252;2023-04-25T13:09:28;29.90;29.80
45843;DHT22;31563;51.744;8.252;2023-04-25T13:11:56;29.50;31.20
45843;DHT22;31563;51.744;8.252;2023-04-25T13:14:25;29.20;32.10
45843;DHT22;31563;51.744;8.252;2023-04-25T13:16:53;28.80;32.60
45843;DHT22;31563;51.744;8.252;2023-04-25T13:19:21;28.60;33.20
45843;DHT22;31563;51.744;8.252;2023-04-25T13:21:49;28.30;33.40
45843;DHT22;31563;51.744;8.252;2023-04-25T13:24:18;28.10;33.80
45843;DHT22;31563;51.744;8.252;2023-04-25T13:26:47;27.80;34.10
45843;DHT22;31563;51.744;8.252;2023-04-25T13:29:15;27.90;35.00
45843;DHT22;31563;51.744;8.252;2023-04-25T13:31:43;28.50;35.10
45843;DHT22;31563;51.744;8.252;2023-04-25T13:34:11;29.30;34.50
45843;DHT22;31563;51.744;8.252;2023-04-25T13:36:39;29.50;28.50
45843;DHT22;31563;51.744;8.252;2023-04-25T13:39:08;29.20;27.50
45843;DHT22;31563;51.744;8.252;2023-04-25T13:41:36;29.40;29.80
45843;DHT22;31563;51.744;8.252;2023-04-25T13:44:06;29.90;30.50
45843;DHT22;31563;51.744;8.252;2023-04-25T13:46:34;30.20;30.70
45843;DHT22;31563;51.744;8.252;2023-04-25T13:49:06;30.50;31.10
45843;DHT22;31563;51.744;8.252;2023-04-25T13:51:40;30.70;30.20
45843;DHT22;31563;51.744;8.252;2023-04-25T13:54:09;30.40;30.20
45843;DHT22;31563;51.744;8.252;2023-04-25T13:56:37;30.60;31.00
45843;DHT22;31563;51.744;8.252;2023-04-25T13:59:07;30.80;30.70
45843;DHT22;31563;51.744;8.252;2023-04-25T14:01:35;30.90;31.10
45843;DHT22;31563;51.744;8.252;2023-04-25T14:04:03;31.30;30.40
45843;DHT22;31563;51.744;8.252;2023-04-25T14:06:32;31.40;30.70
45843;DHT22;31563;51.744;8.252;2023-04-25T14:09:00;31.90;30.60
45843;DHT22;31563;51.744;8.252;2023-04-25T14:11:28;32.30;30.50
45843;DHT22;31563;51.744;8.252;2023-04-25T14:13:56;32.50;30.30
45843;DHT22;31563;51.744;8.252;2023-04-25T14:16:26;32.60;30.00
45843;DHT22;31563;51.744;8.252;2023-04-25T14:18:54;32.60;29.50
45843;DHT22;31563;51.744;8.252;2023-04-25T14:21:22;32.00;28.90
45843;DHT22;31563;51.744;8.252;2023-04-25T14:23:51;30.80;25.70
45843;DHT22;31563;51.744;8.252;2023-04-25T14:26:20;30.20;28.00
45843;DHT22;31563;51.744;8.252;2023-04-25T14:28:48;31.30;30.40
45843;DHT22;31563;51.744;8.252;2023-04-25T14:31:16;32.50;30.00
45843;DHT22;31563;51.744;8.252;2023-04-25T14:33:45;33.30;29.00
45843;DHT22;31563;51.744;8.252;2023-04-25T14:36:14;33.10;28.50
45843;DHT22;31563;51.744;8.252;2023-04-25T14:38:42;32.20;28.60
45843;DHT22;31563;51.744;8.252;2023-04-25T14:41:10;31.20;26.60
45843;DHT22;31563;51.744;8.252;2023-04-25T14:43:38;30.00;26.00
45843;DHT22;31563;51.744;8.252;2023-04-25T14:46:09;29.80;28.60
45843;DHT22;31563;51.744;8.252;2023-04-25T14:48:38;29.70;29.70
45843;DHT22;31563;51.744;8.252;2023-04-25T14:51:08;29.50;30.00
45843;DHT22;31563;51.744;8.252;2023-04-25T14:53:36;29.20;30.50
45843;DHT22;31563;51.744;8.252;2023-04-25T14:56:04;28.90;30.90
45843;DHT22;31563;51.744;8.252;2023-04-25T14:58:33;28.70;31.30
45843;DHT22;31563;51.744;8.252;2023-04-25T15:01:01;28.60;31.60
45843;DHT22;31563;51.744;8.252;2023-04-25T15:03:30;28.60;31.80
45843;DHT22;31563;51.744;8.252;2023-04-25T15:05:59;29.00;33.10
45843;DHT22;31563;51.744;8.252;2023-04-25T15:08:29;30.40;31.90
45843;DHT22;31563;51.744;8.252;2023-04-25T15:10:57;31.90;31.10
45843;DHT22;31563;51.744;8.252;2023-04-25T15:13:26;32.90;30.10
45843;DHT22;31563;51.744;8.252;2023-04-25T15:15:54;33.70;29.60
45843;DHT22;31563;51.744;8.252;2023-04-25T15:18:22;34.30;29.10
45843;DHT22;31563;51.744;8.252;2023-04-25T15:20:52;33.90;28.20
45843;DHT22;31563;51.744;8.252;2023-04-25T15:23:21;33.00;28.40
45843;DHT22;31563;51.744;8.252;2023-04-25T15:25:51;31.70;26.90
45843;DHT22;31563;51.744;8.252;2023-04-25T15:28:20;31.00;29.10
45843;DHT22;31563;51.744;8.252;2023-04-25T15:30:48;30.80;29.60
45843;DHT22;31563;51.744;8.252;2023-04-25T15:33:17;29.90;26.30
45843;DHT22;31563;51.744;8.252;2023-04-25T15:35:45;30.00;27.80
45843;DHT22;31563;51.744;8.252;2023-04-25T15:38:13;30.10;28.20
45843;DHT22;31563;51.744;8.252;2023-04-25T15:40:41;30.20;28.50